Time,TemperatureF,DewpointF,PressureIn,WindDirection,WindDirectionDegrees,WindSpeedMPH,WindSpeedGustMPH,Humidity,HourlyPrecipIn,Conditions,Clouds,dailyrainin,SoftwareType,DateUTC
2013-09-28 00:01:00,56.5,55.2,30.17,ESE,110,0.0,1.0,95,0.00,,OVC OVC///CB,0.00,WUHU216DAVISVP2,2013-09-28 04:01:00,
2013-09-28 00:06:00,56.3,55.0,30.17,ESE,110,0.0,1.0,95,0.00,,OVC OVC///CB,0.00,WUHU216DAVISVP2,2013-09-28 04:06:00,
2013-09-28 00:11:00,56.1,54.8,30.17,ESE,110,0.0,1.0,95,0.00,,OVC OVC///CB,0.00,WUHU216DAVISVP2,2013-09-28 04:11:00,
2013-09-28 00:16:00,55.9,54.9,30.17,ESE,110,0.0,0.0,96,0.00,,OVC OVC///CB,0.00,WUHU216DAVISVP2,2013-09-28 04:16:00,
2013-09-28 00:21:00,55.7,54.7,30.17,ESE,110,0.0,0.0,96,0.00,,OVC OVC///CB,0.00,WUHU216DAVISVP2,2013-09-28 04:21:00,
2013-09-28 00:26:00,55.4,54.4,30.17,ESE,110,0.0,0.0,96,0.00,,OVC OVC///CB,0.00,WUHU216DAVISVP2,2013-09-28 04:26:00,
2013-09-28 00:31:00,55.3,54.5,30.17,ESE,111,0.0,0.0,97,0.00,,OVC OVC///CB,0.00,WUHU216DAVISVP2,2013-09-28 04:31:00,
2013-09-28 00:36:00,55.3,54.5,30.17,ESE,110,0.0,0.0,97,0.00,,OVC OVC///CB,0.00,WUHU216DAVISVP2,2013-09-28 04:36:00,
2013-09-28 00:41:00,55.1,54.4,30.17,ESE,111,0.0,0.0,97,0.00,,OVC OVC///CB,0.00,WUHU216DAVISVP2,2013-09-28 04:41:00,
2013-09-28 00:46:00,55.0,54.3,30.18,ESE,110,0.0,0.0,97,0.00,,OVC OVC///CB,0.00,WUHU216DAVISVP2,2013-09-28 04:46:00,
2013-09-28 00:51:00,55.1,54.4,30.18,ESE,110,0.0,0.0,97,0.00,,OVC OVC///CB,0.00,WUHU216DAVISVP2,2013-09-28 04:51:00,
2013-09-28 00:56:00,55.0,54.3,30.17,ESE,110,0.0,0.0,97,0.00,,OVC OVC///CB,0.00,WUHU216DAVISVP2,2013-09-28 04:56:00,
2013-09-28 01:01:00,55.0,54.3,30.17,ESE,110,0.0,0.0,97,0.00,,OVC OVC///CB,0.00,WUHU216DAVISVP2,2013-09-28 05:01:00,
2013-09-28 01:06:00,54.9,54.2,30.18,ESE,110,0.0,0.0,97,0.00,,OVC OVC///CB,0.00,WUHU216DAVISVP2,2013-09-28 05:06:00,
2013-09-28 01:11:00,54.7,54.2,30.17,ESE,110,0.0,0.0,98,0.00,,OVC OVC///CB,0.00,WUHU216DAVISVP2,2013-09-28 05:11:00,
2013-09-28 01:16:00,54.7,54.2,30.17,ESE,111,0.0,1.0,98,0.00,,OVC OVC///CB,0.00,WUHU216DAVISVP2,2013-09-28 05:16:00,
2013-09-28 01:21:00,55.0,54.5,30.17,East,100,0.0,1.0,98,0.00,,OVC OVC///CB,0.00,WUHU216DAVISVP2,2013-09-28 05:21:00,
2013-09-28 01:26:00,55.1,54.6,30.17,ESE,110,0.0,1.0,98,0.00,,OVC OVC///CB,0.00,WUHU216DAVISVP2,2013-09-28 05:26:00,
2013-09-28 01:31:00,55.1,54.6,30.17,ESE,112,0.0,1.0,98,0.00,,OVC OVC///CB,0.00,WUHU216DAVISVP2,2013-09-28 05:31:00,
2013-09-28 01:36:00,55.1,54.6,30.17,ESE,111,0.0,1.0,98,0.00,,OVC OVC///CB,0.00,WUHU216DAVISVP2,2013-09-28 05:36:00,
2013-09-28 01:41:00,55.1,54.6,30.17,East,96,0.0,1.0,98,0.00,,OVC OVC///CB,0.00,WUHU216DAVISVP2,2013-09-28 05:41:00,
2013-09-28 01:46:00,55.0,54.3,30.17,East,96,0.0,1.0,97,0.00,,OVC OVC///CB,0.00,WUHU216DAVISVP2,2013-09-28 05:46:00,
2013-09-28 01:51:00,55.0,54.3,30.17,ESE,118,0.0,2.0,97,0.00,,OVC OVC///CB,0.00,WUHU216DAVISVP2,2013-09-28 05:51:00,
2013-09-28 01:56:00,55.0,54.3,30.17,ESE,118,0.0,2.0,97,0.00,,OVC OVC///CB,0.00,WUHU216DAVISVP2,2013-09-28 05:56:00,
2013-09-28 02:01:00,54.9,54.2,30.17,ESE,118,0.0,2.0,97,0.00,,OVC OVC///CB,0.00,WUHU216DAVISVP2,2013-09-28 06:01:00,
2013-09-28 02:06:00,54.9,54.2,30.17,East,87,0.0,2.0,97,0.00,,OVC OVC///CB,0.00,WUHU216DAVISVP2,2013-09-28 06:06:00,
2013-09-28 02:11:00,54.9,54.2,30.17,East,90,0.0,2.0,97,0.00,,OVC OVC///CB,0.00,WUHU216DAVISVP2,2013-09-28 06:11:00,
2013-09-28 02:16:00,55.0,54.3,30.18,East,90,0.0,2.0,97,0.00,,OVC OVC///CB,0.00,WUHU216DAVISVP2,2013-09-28 06:16:00,
2013-09-28 02:21:00,55.2,54.4,30.18,ESE,102,0.0,2.0,97,0.00,,OVC OVC///CB,0.00,WUHU216DAVISVP2,2013-09-28 06:21:00,
2013-09-28 02:26:00,55.3,54.5,30.18,East,91,0.0,2.0,97,0.00,,OVC OVC///CB,0.00,WUHU216DAVISVP2,2013-09-28 06:26:00,
2013-09-28 02:31:00,55.3,54.3,30.17,East,96,2.0,3.0,96,0.00,,OVC OVC///CB,0.00,WUHU216DAVISVP2,2013-09-28 06:31:00,
2013-09-28 02:36:00,55.4,54.4,30.17,East,94,0.0,3.0,96,0.00,,OVC OVC///CB,0.00,WUHU216DAVISVP2,2013-09-28 06:36:00,
2013-09-28 02:41:00,55.3,54.3,30.17,East,100,0.0,2.0,96,0.00,,OVC OVC///CB,0.00,WUHU216DAVISVP2,2013-09-28 06:41:00,
2013-09-28 02:46:00,55.0,54.0,30.18,East,98,0.0,2.0,96,0.00,,OVC OVC///CB,0.00,WUHU216DAVISVP2,2013-09-28 06:46:00,
2013-09-28 02:51:00,55.0,54.0,30.18,East,83,0.0,2.0,96,0.00,,OVC OVC///CB,0.00,WUHU216DAVISVP2,2013-09-28 06:51:00,
2013-09-28 02:56:00,54.7,53.7,30.18,East,83,0.0,1.0,96,0.00,,OVC OVC///CB,0.00,WUHU216DAVISVP2,2013-09-28 06:56:00,
2013-09-28 03:01:00,54.2,53.2,30.17,East,83,0.0,1.0,96,0.00,,OVC OVC///CB,0.00,WUHU216DAVISVP2,2013-09-28 07:01:00,
2013-09-28 03:06:00,53.9,52.9,30.17,East,83,0.0,1.0,96,0.00,,OVC OVC///CB,0.00,WUHU216DAVISVP2,2013-09-28 07:06:00,
2013-09-28 03:11:00,53.6,52.9,30.17,East,83,0.0,0.0,97,0.00,,OVC OVC///CB,0.00,WUHU216DAVISVP2,2013-09-28 07:11:00,
2013-09-28 03:16:00,53.2,52.5,30.17,East,83,0.0,0.0,97,0.00,,OVC OVC///CB,0.00,WUHU216DAVISVP2,2013-09-28 07:16:00,
2013-09-28 03:21:00,52.9,52.2,30.17,East,84,0.0,0.0,97,0.00,,OVC OVC///CB,0.00,WUHU216DAVISVP2,2013-09-28 07:21:00,
2013-09-28 03:26:00,52.9,52.4,30.17,East,84,0.0,0.0,98,0.00,,OVC OVC///CB,0.00,WUHU216DAVISVP2,2013-09-28 07:26:00,
2013-09-28 03:31:00,52.8,52.3,30.17,East,83,0.0,0.0,98,0.00,,OVC OVC///CB,0.00,WUHU216DAVISVP2,2013-09-28 07:31:00,
2013-09-28 03:36:00,52.6,52.1,30.17,East,85,0.0,0.0,98,0.00,,OVC OVC///CB,0.00,WUHU216DAVISVP2,2013-09-28 07:36:00,
2013-09-28 03:41:00,52.4,51.9,30.17,East,84,0.0,0.0,98,0.00,,OVC OVC///CB,0.00,WUHU216DAVISVP2,2013-09-28 07:41:00,
2013-09-28 03:46:00,52.1,51.6,30.17,East,84,0.0,0.0,98,0.00,,OVC OVC///CB,0.00,WUHU216DAVISVP2,2013-09-28 07:46:00,
2013-09-28 03:51:00,52.2,52.0,30.17,East,84,0.0,0.0,99,0.00,,OVC OVC///CB,0.00,WUHU216DAVISVP2,2013-09-28 07:51:00,
2013-09-28 03:56:00,52.2,52.0,30.17,East,85,0.0,0.0,99,0.00,,OVC OVC///CB,0.00,WUHU216DAVISVP2,2013-09-28 07:56:00,
2013-09-28 04:01:00,52.2,52.0,30.17,East,84,0.0,0.0,99,0.00,,OVC OVC///CB,0.00,WUHU216DAVISVP2,2013-09-28 08:01:00,
2013-09-28 04:06:00,52.2,52.0,30.17,South,174,0.0,1.0,99,0.00,,OVC OVC///CB,0.00,WUHU216DAVISVP2,2013-09-28 08:06:00,
2013-09-28 04:11:00,52.2,52.0,30.17,South,175,0.0,1.0,99,0.00,,OVC OVC///CB,0.00,WUHU216DAVISVP2,2013-09-28 08:11:00,
2013-09-28 04:16:00,52.2,52.0,30.17,South,174,0.0,1.0,99,0.00,,OVC OVC///CB,0.00,WUHU216DAVISVP2,2013-09-28 08:16:00,
2013-09-28 04:21:00,52.3,52.1,30.17,South,174,0.0,0.0,99,0.00,,OVC OVC///CB,0.00,WUHU216DAVISVP2,2013-09-28 08:21:00,
2013-09-28 04:26:00,52.2,52.0,30.17,South,174,0.0,0.0,99,0.00,,OVC OVC///CB,0.00,WUHU216DAVISVP2,2013-09-28 08:26:00,
2013-09-28 04:31:00,52.0,51.8,30.17,South,174,0.0,0.0,99,0.00,,OVC OVC///CB,0.00,WUHU216DAVISVP2,2013-09-28 08:31:00,
2013-09-28 04:36:00,51.8,51.6,30.17,South,174,0.0,0.0,99,0.00,,OVC OVC///CB,0.00,WUHU216DAVISVP2,2013-09-28 08:36:00,
2013-09-28 04:41:00,51.8,51.6,30.17,South,174,0.0,0.0,99,0.00,,OVC OVC///CB,0.00,WUHU216DAVISVP2,2013-09-28 08:41:00,
2013-09-28 04:46:00,51.7,51.5,30.17,South,174,0.0,0.0,99,0.00,,OVC OVC///CB,0.00,WUHU216DAVISVP2,2013-09-28 08:46:00,
2013-09-28 04:51:00,51.7,51.5,30.17,South,174,0.0,0.0,99,0.00,,OVC OVC///CB,0.00,WUHU216DAVISVP2,2013-09-28 08:51:00,
2013-09-28 04:56:00,51.8,51.6,30.17,South,174,0.0,0.0,99,0.00,,OVC OVC///CB,0.00,WUHU216DAVISVP2,2013-09-28 08:56:00,
2013-09-28 05:01:00,51.8,51.6,30.18,South,174,0.0,0.0,99,0.00,,OVC OVC///CB,0.00,WUHU216DAVISVP2,2013-09-28 09:01:00,
2013-09-28 05:06:00,51.4,51.2,30.18,South,174,0.0,0.0,99,0.00,,OVC OVC///CB,0.00,WUHU216DAVISVP2,2013-09-28 09:06:00,
2013-09-28 05:11:00,51.6,51.4,30.18,South,174,0.0,0.0,99,0.00,,OVC OVC///CB,0.00,WUHU216DAVISVP2,2013-09-28 09:11:00,
2013-09-28 05:16:00,51.4,51.2,30.18,South,174,0.0,0.0,99,0.00,,OVC OVC///CB,0.00,WUHU216DAVISVP2,2013-09-28 09:16:00,
2013-09-28 05:21:00,51.1,50.9,30.18,South,174,0.0,0.0,99,0.00,,OVC OVC///CB,0.00,WUHU216DAVISVP2,2013-09-28 09:21:00,
2013-09-28 05:26:00,50.8,50.6,30.18,South,174,0.0,0.0,99,0.00,,OVC OVC///CB,0.00,WUHU216DAVISVP2,2013-09-28 09:26:00,
2013-09-28 05:31:00,50.6,50.4,30.18,South,175,0.0,0.0,99,0.00,,OVC OVC///CB,0.00,WUHU216DAVISVP2,2013-09-28 09:31:00,
2013-09-28 05:36:00,50.6,50.6,30.18,South,174,0.0,0.0,100,0.00,,OVC OVC///CB,0.00,WUHU216DAVISVP2,2013-09-28 09:36:00,
2013-09-28 05:41:00,50.7,50.7,30.18,South,174,0.0,0.0,100,0.00,,OVC OVC///CB,0.00,WUHU216DAVISVP2,2013-09-28 09:41:00,
2013-09-28 05:46:00,51.0,51.0,30.18,South,174,0.0,0.0,100,0.00,,OVC OVC///CB,0.00,WUHU216DAVISVP2,2013-09-28 09:46:00,
2013-09-28 05:51:00,51.0,51.0,30.18,South,174,0.0,0.0,100,0.00,,OVC OVC///CB,0.00,WUHU216DAVISVP2,2013-09-28 09:51:00,
2013-09-28 05:56:00,50.9,50.9,30.18,South,174,0.0,0.0,100,0.00,,OVC OVC///CB,0.00,WUHU216DAVISVP2,2013-09-28 09:56:00,
2013-09-28 06:01:00,50.9,50.9,30.18,South,174,0.0,0.0,100,0.00,,OVC OVC///CB,0.00,WUHU216DAVISVP2,2013-09-28 10:01:00,
2013-09-28 06:06:00,50.8,50.8,30.18,South,174,0.0,0.0,100,0.00,,OVC OVC///CB,0.00,WUHU216DAVISVP2,2013-09-28 10:06:00,
2013-09-28 06:11:00,50.7,50.7,30.18,South,175,0.0,0.0,100,0.00,,OVC OVC///CB,0.00,WUHU216DAVISVP2,2013-09-28 10:11:00,
2013-09-28 06:16:00,50.7,50.7,30.19,South,175,0.0,0.0,100,0.00,,OVC OVC///CB,0.00,WUHU216DAVISVP2,2013-09-28 10:16:00,
2013-09-28 06:21:00,50.6,50.6,30.19,South,174,0.0,0.0,100,0.00,,OVC OVC///CB,0.00,WUHU216DAVISVP2,2013-09-28 10:21:00,
2013-09-28 06:26:00,50.4,50.4,30.19,South,174,0.0,0.0,100,0.00,,OVC OVC///CB,0.00,WUHU216DAVISVP2,2013-09-28 10:26:00,
2013-09-28 06:31:00,50.3,50.3,30.19,South,175,0.0,0.0,100,0.00,,OVC OVC///CB,0.00,WUHU216DAVISVP2,2013-09-28 10:31:00,
2013-09-28 06:36:00,50.4,50.4,30.19,South,174,0.0,0.0,100,0.00,,OVC OVC///CB,0.00,WUHU216DAVISVP2,2013-09-28 10:36:00,
2013-09-28 06:41:00,50.6,50.6,30.19,South,174,0.0,0.0,100,0.00,,OVC OVC///CB,0.00,WUHU216DAVISVP2,2013-09-28 10:41:00,
2013-09-28 06:46:00,50.4,50.4,30.19,South,174,0.0,0.0,100,0.00,,OVC OVC///CB,0.00,WUHU216DAVISVP2,2013-09-28 10:46:00,
2013-09-28 06:51:00,50.6,50.6,30.19,South,174,0.0,0.0,100,0.00,,OVC OVC///CB,0.00,WUHU216DAVISVP2,2013-09-28 10:51:00,
2013-09-28 06:56:00,50.8,50.8,30.19,South,174,0.0,0.0,100,0.00,,OVC OVC///CB,0.00,WUHU216DAVISVP2,2013-09-28 10:56:00,
2013-09-28 07:01:00,50.8,50.8,30.20,South,174,0.0,0.0,100,0.00,,OVC OVC///CB,0.00,WUHU216DAVISVP2,2013-09-28 11:01:00,
2013-09-28 07:06:00,50.8,50.8,30.19,South,174,0.0,0.0,100,0.00,,OVC OVC///CB,0.00,WUHU216DAVISVP2,2013-09-28 11:06:00,
2013-09-28 07:11:00,50.8,50.8,30.20,South,173,0.0,0.0,100,0.00,,OVC OVC///CB,0.00,WUHU216DAVISVP2,2013-09-28 11:11:00,
2013-09-28 07:17:00,50.8,50.8,30.20,South,172,0.0,0.0,100,0.00,,OVC OVC///CB,0.00,WUHU216DAVISVP2,2013-09-28 11:17:00,
2013-09-28 07:22:00,50.8,50.8,30.20,South,173,0.0,0.0,100,0.00,,OVC OVC///CB,0.00,WUHU216DAVISVP2,2013-09-28 11:22:00,
2013-09-28 07:27:00,50.7,50.7,30.20,South,173,0.0,0.0,100,0.00,,OVC OVC///CB,0.00,WUHU216DAVISVP2,2013-09-28 11:27:00,
2013-09-28 07:32:00,50.6,50.6,30.20,South,174,0.0,0.0,100,0.00,,OVC OVC///CB,0.00,WUHU216DAVISVP2,2013-09-28 11:32:00,
2013-09-28 07:37:00,50.8,50.8,30.20,South,174,0.0,0.0,100,0.00,,OVC OVC///CB,0.00,WUHU216DAVISVP2,2013-09-28 11:37:00,
2013-09-28 07:42:00,50.9,50.9,30.21,South,176,0.0,0.0,100,0.00,,OVC OVC///CB,0.00,WUHU216DAVISVP2,2013-09-28 11:42:00,
2013-09-28 07:47:00,51.3,51.3,30.21,South,177,0.0,0.0,100,0.00,,OVC OVC///CB,0.00,WUHU216DAVISVP2,2013-09-28 11:47:00,
2013-09-28 07:52:00,51.4,51.4,30.21,South,177,0.0,0.0,100,0.00,,OVC OVC///CB,0.00,WUHU216DAVISVP2,2013-09-28 11:52:00,
2013-09-28 07:57:00,51.6,51.6,30.21,South,176,0.0,0.0,100,0.00,,OVC OVC///CB,0.00,WUHU216DAVISVP2,2013-09-28 11:57:00,
2013-09-28 08:02:00,51.7,51.7,30.21,South,177,0.0,0.0,100,0.00,,OVC OVC///CB,0.00,WUHU216DAVISVP2,2013-09-28 12:02:00,
2013-09-28 08:07:00,51.9,51.9,30.21,South,177,0.0,0.0,100,0.00,,OVC OVC///CB,0.00,WUHU216DAVISVP2,2013-09-28 12:07:00,
2013-09-28 08:12:00,52.2,52.2,30.21,South,177,0.0,1.0,100,0.00,,OVC OVC///CB,0.00,WUHU216DAVISVP2,2013-09-28 12:12:00,
2013-09-28 08:17:00,53.1,53.1,30.21,South,177,0.0,1.0,100,0.00,,OVC OVC///CB,0.00,WUHU216DAVISVP2,2013-09-28 12:17:00,
2013-09-28 08:22:00,53.9,53.9,30.21,South,170,0.0,1.0,100,0.00,,OVC OVC///CB,0.00,WUHU216DAVISVP2,2013-09-28 12:22:00,
2013-09-28 08:27:00,54.5,54.5,30.21,ESE,118,0.0,1.0,100,0.00,,OVC OVC///CB,0.00,WUHU216DAVISVP2,2013-09-28 12:27:00,
2013-09-28 08:32:00,55.0,55.0,30.21,East,94,0.0,2.0,100,0.00,,OVC OVC///CB,0.00,WUHU216DAVISVP2,2013-09-28 12:32:00,
2013-09-28 08:37:00,55.8,55.6,30.21,ESE,112,0.0,2.0,99,0.00,,OVC OVC///CB,0.00,WUHU216DAVISVP2,2013-09-28 12:37:00,
2013-09-28 08:42:00,56.6,55.8,30.21,East,98,0.0,2.0,97,0.00,,OVC OVC///CB,0.00,WUHU216DAVISVP2,2013-09-28 12:42:00,
2013-09-28 08:47:00,57.3,56.0,30.21,East,100,0.0,2.0,95,0.00,,OVC OVC///CB,0.00,WUHU216DAVISVP2,2013-09-28 12:47:00,
2013-09-28 08:52:00,58.0,56.1,30.21,South,172,0.0,1.0,93,0.00,,OVC OVC///CB,0.00,WUHU216DAVISVP2,2013-09-28 12:52:00,
2013-09-28 08:57:00,58.9,57.0,30.22,South,173,0.0,1.0,93,0.00,,OVC OVC///CB,0.00,WUHU216DAVISVP2,2013-09-28 12:57:00,
2013-09-28 09:02:00,59.7,56.6,30.22,NE,51,0.0,2.0,89,0.00,,OVC OVC///CB,0.00,WUHU216DAVISVP2,2013-09-28 13:02:00,
2013-09-28 09:07:00,60.2,56.7,30.22,SSE,157,0.0,2.0,88,0.00,,OVC OVC///CB,0.00,WUHU216DAVISVP2,2013-09-28 13:07:00,
2013-09-28 09:12:00,60.5,56.7,30.22,SSE,163,0.0,2.0,87,0.00,,OVC OVC///CB,0.00,WUHU216DAVISVP2,2013-09-28 13:12:00,
2013-09-28 09:17:00,60.5,56.4,30.22,SSE,158,0.0,5.0,86,0.00,,OVC OVC///CB,0.00,WUHU216DAVISVP2,2013-09-28 13:17:00,
2013-09-28 09:22:00,60.8,56.7,30.22,SSE,148,0.0,5.0,86,0.00,,OVC OVC///CB,0.00,WUHU216DAVISVP2,2013-09-28 13:22:00,
2013-09-28 09:27:00,61.2,56.5,30.22,South,179,2.0,4.0,84,0.00,,OVC OVC///CB,0.00,WUHU216DAVISVP2,2013-09-28 13:27:00,
2013-09-28 09:32:00,61.1,56.7,30.22,SE,146,0.0,2.0,85,0.00,,OVC OVC///CB,0.00,WUHU216DAVISVP2,2013-09-28 13:32:00,
2013-09-28 09:37:00,61.3,56.9,30.22,SSE,163,0.0,4.0,85,0.00,,OVC OVC///CB,0.00,WUHU216DAVISVP2,2013-09-28 13:37:00,
2013-09-28 09:42:00,61.7,57.0,30.22,ESE,110,0.0,4.0,84,0.00,,OVC OVC///CB,0.00,WUHU216DAVISVP2,2013-09-28 13:42:00,
2013-09-28 09:47:00,62.1,57.4,30.22,WNW,290,1.0,4.0,84,0.00,,OVC OVC///CB,0.00,WUHU216DAVISVP2,2013-09-28 13:47:00,
2013-09-28 09:52:00,62.2,57.1,30.22,East,84,2.0,4.0,83,0.00,,OVC OVC///CB,0.00,WUHU216DAVISVP2,2013-09-28 13:52:00,
2013-09-28 09:57:00,62.2,57.1,30.22,East,89,0.0,6.0,83,0.00,,OVC OVC///CB,0.00,WUHU216DAVISVP2,2013-09-28 13:57:00,
2013-09-28 10:02:00,62.5,57.4,30.22,SE,131,1.0,6.0,83,0.00,,OVC OVC///CB,0.00,WUHU216DAVISVP2,2013-09-28 14:02:00,
2013-09-28 10:07:00,63.1,57.7,30.22,SSE,152,0.0,5.0,82,0.00,,OVC OVC///CB,0.00,WUHU216DAVISVP2,2013-09-28 14:07:00,
2013-09-28 10:12:00,63.3,57.6,30.22,South,185,0.0,5.0,81,0.00,,OVC OVC///CB,0.00,WUHU216DAVISVP2,2013-09-28 14:12:00,
2013-09-28 10:17:00,63.7,57.6,30.22,SSW,207,0.0,4.0,80,0.00,,OVC OVC///CB,0.00,WUHU216DAVISVP2,2013-09-28 14:17:00,
2013-09-28 10:22:00,63.7,57.3,30.22,SSW,212,3.0,7.0,79,0.00,,OVC OVC///CB,0.00,WUHU216DAVISVP2,2013-09-28 14:22:00,
2013-09-28 10:27:00,63.7,57.6,30.22,SSW,212,2.0,7.0,80,0.00,,OVC OVC///CB,0.00,WUHU216DAVISVP2,2013-09-28 14:27:00,
2013-09-28 10:32:00,63.9,57.8,30.22,South,170,0.0,7.0,80,0.00,,OVC OVC///CB,0.00,WUHU216DAVISVP2,2013-09-28 14:32:00,
2013-09-28 10:37:00,64.3,58.2,30.22,SSE,158,3.0,7.0,80,0.00,,OVC OVC///CB,0.00,WUHU216DAVISVP2,2013-09-28 14:37:00,
2013-09-28 10:42:00,64.7,58.3,30.22,SSW,204,0.0,5.0,79,0.00,,OVC OVC///CB,0.00,WUHU216DAVISVP2,2013-09-28 14:42:00,
2013-09-28 10:47:00,65.0,58.5,30.22,ESE,115,0.0,3.0,79,0.00,,OVC OVC///CB,0.00,WUHU216DAVISVP2,2013-09-28 14:47:00,
2013-09-28 10:52:00,65.1,58.6,30.21,East,88,2.0,3.0,79,0.00,,OVC OVC///CB,0.00,WUHU216DAVISVP2,2013-09-28 14:52:00,
2013-09-28 10:57:00,65.4,58.9,30.21,SW,214,0.0,4.0,79,0.00,,OVC OVC///CB,0.00,WUHU216DAVISVP2,2013-09-28 14:57:00,
2013-09-28 11:02:00,65.9,59.1,30.21,SSE,148,0.0,4.0,78,0.00,,OVC OVC///CB,0.00,WUHU216DAVISVP2,2013-09-28 15:02:00,
2013-09-28 11:06:00,66.3,59.1,30.21,SSE,165,0.0,4.0,77,0.00,,OVC OVC///CB,0.00,WUHU216DAVISVP2,2013-09-28 15:06:00,
2013-09-28 11:11:00,66.5,59.0,30.21,SSE,153,0.0,4.0,76,0.00,,OVC OVC///CB,0.00,WUHU216DAVISVP2,2013-09-28 15:11:00,
2013-09-28 11:17:00,66.8,59.6,30.21,East,100,1.0,5.0,77,0.00,,OVC OVC///CB,0.00,WUHU216DAVISVP2,2013-09-28 15:17:00,
2013-09-28 11:22:00,67.0,59.4,30.21,SSW,195,1.0,5.0,76,0.00,,OVC OVC///CB,0.00,WUHU216DAVISVP2,2013-09-28 15:22:00,
2013-09-28 11:26:00,67.3,59.7,30.20,East,98,2.0,5.0,76,0.00,,OVC OVC///CB,0.00,WUHU216DAVISVP2,2013-09-28 15:26:00,
2013-09-28 11:32:00,67.0,59.8,30.20,South,169,0.0,8.0,77,0.00,,OVC OVC///CB,0.00,WUHU216DAVISVP2,2013-09-28 15:32:00,
2013-09-28 11:37:00,67.4,59.8,30.20,South,169,1.0,8.0,76,0.00,,OVC OVC///CB,0.00,WUHU216DAVISVP2,2013-09-28 15:37:00,
2013-09-28 11:42:00,67.8,60.2,30.20,East,87,1.0,7.0,76,0.00,,OVC OVC///CB,0.00,WUHU216DAVISVP2,2013-09-28 15:42:00,
2013-09-28 11:47:00,68.2,59.9,30.20,SSW,200,1.0,7.0,74,0.00,,OVC OVC///CB,0.00,WUHU216DAVISVP2,2013-09-28 15:47:00,
2013-09-28 11:52:00,68.6,60.3,30.20,East,89,0.0,4.0,74,0.00,,OVC OVC///CB,0.00,WUHU216DAVISVP2,2013-09-28 15:52:00,
2013-09-28 11:57:00,69.1,60.4,30.20,East,86,3.0,3.0,73,0.00,,OVC OVC///CB,0.00,WUHU216DAVISVP2,2013-09-28 15:57:00,
2013-09-28 12:02:00,68.6,60.3,30.20,ESE,115,0.0,6.0,74,0.00,,OVC OVC///CB,0.00,WUHU216DAVISVP2,2013-09-28 16:02:00,
2013-09-28 12:07:00,69.0,60.3,30.20,SSW,199,0.0,7.0,73,0.00,,OVC OVC///CB,0.00,WUHU216DAVISVP2,2013-09-28 16:07:00,
2013-09-28 12:12:00,69.4,60.3,30.20,WSW,257,3.0,7.0,72,0.00,,OVC OVC///CB,0.00,WUHU216DAVISVP2,2013-09-28 16:12:00,
2013-09-28 12:17:00,69.9,60.4,30.20,South,190,2.0,7.0,71,0.00,,OVC OVC///CB,0.00,WUHU216DAVISVP2,2013-09-28 16:17:00,
2013-09-28 12:22:00,70.3,61.2,30.20,SSW,194,0.0,7.0,72,0.00,,OVC OVC///CB,0.00,WUHU216DAVISVP2,2013-09-28 16:22:00,
2013-09-28 12:27:00,71.1,61.2,30.20,South,172,0.0,6.0,70,0.00,,OVC OVC///CB,0.00,WUHU216DAVISVP2,2013-09-28 16:27:00,
2013-09-28 12:31:00,70.8,60.5,30.19,ENE,74,3.0,5.0,69,0.00,,OVC OVC///CB,0.00,WUHU216DAVISVP2,2013-09-28 16:31:00,
2013-09-28 12:36:00,70.8,60.5,30.19,SW,224,0.0,4.0,69,0.00,,OVC OVC///CB,0.00,WUHU216DAVISVP2,2013-09-28 16:36:00,
2013-09-28 12:41:00,71.2,61.3,30.19,SSW,198,0.0,7.0,70,0.00,,OVC OVC///CB,0.00,WUHU216DAVISVP2,2013-09-28 16:41:00,
2013-09-28 12:46:00,71.6,60.8,30.19,South,191,3.0,7.0,68,0.00,,OVC OVC///CB,0.00,WUHU216DAVISVP2,2013-09-28 16:46:00,
2013-09-28 12:51:00,71.8,61.0,30.19,SSW,200,3.0,7.0,68,0.00,,OVC OVC///CB,0.00,WUHU216DAVISVP2,2013-09-28 16:51:00,
2013-09-28 12:56:00,72.3,61.5,30.19,SSE,148,0.0,7.0,68,0.00,,OVC OVC///CB,0.00,WUHU216DAVISVP2,2013-09-28 16:56:00,
2013-09-28 13:01:00,72.6,61.4,30.19,ESE,110,1.0,6.0,67,0.00,,OVC OVC///CB,0.00,WUHU216DAVISVP2,2013-09-28 17:01:00,
2013-09-28 13:06:00,72.7,61.1,30.19,SW,221,3.0,6.0,66,0.00,,OVC OVC///CB,0.00,WUHU216DAVISVP2,2013-09-28 17:06:00,
2013-09-28 13:11:00,72.9,61.2,30.19,SSW,212,3.0,6.0,66,0.00,,OVC OVC///CB,0.00,WUHU216DAVISVP2,2013-09-28 17:11:00,
2013-09-28 13:16:00,73.2,61.5,30.19,SW,215,0.0,6.0,66,0.00,,OVC OVC///CB,0.00,WUHU216DAVISVP2,2013-09-28 17:16:00,
2013-09-28 13:21:00,73.2,61.1,30.18,WNW,285,0.0,6.0,65,0.00,,OVC OVC///CB,0.00,WUHU216DAVISVP2,2013-09-28 17:21:00,
2013-09-28 13:26:00,72.7,61.1,30.18,SSW,204,0.0,5.0,66,0.00,,OVC OVC///CB,0.00,WUHU216DAVISVP2,2013-09-28 17:26:00,
2013-09-28 13:31:00,73.1,61.4,30.18,SSW,212,2.0,5.0,66,0.00,,OVC OVC///CB,0.00,WUHU216DAVISVP2,2013-09-28 17:31:00,
2013-09-28 13:36:00,73.2,61.1,30.18,South,187,0.0,5.0,65,0.00,,OVC OVC///CB,0.00,WUHU216DAVISVP2,2013-09-28 17:36:00,
2013-09-28 13:41:00,73.4,60.4,30.18,WSW,243,2.0,5.0,63,0.00,,OVC OVC///CB,0.00,WUHU216DAVISVP2,2013-09-28 17:41:00,
2013-09-28 13:46:00,72.9,61.2,30.18,South,186,0.0,6.0,66,0.00,,OVC OVC///CB,0.00,WUHU216DAVISVP2,2013-09-28 17:46:00,
2013-09-28 13:52:00,73.3,60.3,30.17,SSW,213,0.0,8.0,63,0.00,,OVC OVC///CB,0.00,WUHU216DAVISVP2,2013-09-28 17:52:00,
2013-09-28 13:57:00,74.1,60.2,30.17,ESE,108,0.0,8.0,61,0.00,,OVC OVC///CB,0.00,WUHU216DAVISVP2,2013-09-28 17:57:00,
2013-09-28 14:02:00,74.3,61.3,30.16,SW,233,1.0,7.0,63,0.00,,OVC OVC///CB,0.00,WUHU216DAVISVP2,2013-09-28 18:02:00,
2013-09-28 14:07:00,74.5,60.6,30.16,East,97,1.0,6.0,61,0.00,,OVC OVC///CB,0.00,WUHU216DAVISVP2,2013-09-28 18:07:00,
2013-09-28 14:12:00,75.1,60.7,30.16,SW,214,3.0,6.0,60,0.00,,OVC OVC///CB,0.00,WUHU216DAVISVP2,2013-09-28 18:12:00,
2013-09-28 14:17:00,75.2,60.3,30.16,SSW,200,2.0,6.0,59,0.00,,OVC OVC///CB,0.00,WUHU216DAVISVP2,2013-09-28 18:17:00,
2013-09-28 14:22:00,75.1,60.2,30.15,ESE,114,0.0,5.0,59,0.00,,OVC OVC///CB,0.00,WUHU216DAVISVP2,2013-09-28 18:22:00,
2013-09-28 14:27:00,74.8,59.9,30.15,SW,229,1.0,7.0,59,0.00,,OVC OVC///CB,0.00,WUHU216DAVISVP2,2013-09-28 18:27:00,
2013-09-28 14:32:00,74.9,60.5,30.15,SE,134,0.0,7.0,60,0.00,,OVC OVC///CB,0.00,WUHU216DAVISVP2,2013-09-28 18:32:00,
2013-09-28 14:37:00,76.0,61.0,30.15,SSW,204,3.0,7.0,59,0.00,,OVC OVC///CB,0.00,WUHU216DAVISVP2,2013-09-28 18:37:00,
2013-09-28 14:42:00,75.3,59.9,30.15,SSE,148,0.0,7.0,58,0.00,,OVC OVC///CB,0.00,WUHU216DAVISVP2,2013-09-28 18:42:00,
2013-09-28 14:47:00,74.9,60.0,30.15,SSW,193,1.0,7.0,59,0.00,,OVC OVC///CB,0.00,WUHU216DAVISVP2,2013-09-28 18:47:00,
2013-09-28 14:52:00,75.4,59.5,30.14,SSE,165,4.0,8.0,57,0.00,,OVC OVC///CB,0.00,WUHU216DAVISVP2,2013-09-28 18:52:00,
2013-09-28 14:57:00,75.5,60.1,30.14,SW,232,0.0,8.0,58,0.00,,OVC OVC///CB,0.00,WUHU216DAVISVP2,2013-09-28 18:57:00,
2013-09-28 15:02:00,75.6,60.2,30.14,East,90,0.0,8.0,58,0.00,,OVC OVC///CB,0.00,WUHU216DAVISVP2,2013-09-28 19:02:00,
2013-09-28 15:07:00,75.0,59.6,30.14,SSE,160,0.0,8.0,58,0.00,,OVC OVC///CB,0.00,WUHU216DAVISVP2,2013-09-28 19:07:00,
2013-09-28 15:12:00,75.0,60.1,30.14,SSE,155,0.0,4.0,59,0.00,,OVC OVC///CB,0.00,WUHU216DAVISVP2,2013-09-28 19:12:00,
2013-09-28 15:17:00,74.5,59.1,30.14,SSE,150,1.0,4.0,58,0.00,,OVC OVC///CB,0.00,WUHU216DAVISVP2,2013-09-28 19:17:00,
2013-09-28 15:22:00,73.9,59.5,30.14,SSE,167,0.0,4.0,60,0.00,,OVC OVC///CB,0.00,WUHU216DAVISVP2,2013-09-28 19:22:00,
2013-09-28 15:27:00,74.2,59.8,30.13,ESE,114,3.0,4.0,60,0.00,,OVC OVC///CB,0.00,WUHU216DAVISVP2,2013-09-28 19:27:00,
2013-09-28 15:32:00,74.1,59.2,30.13,SSE,167,0.0,5.0,59,0.00,,OVC OVC///CB,0.00,WUHU216DAVISVP2,2013-09-28 19:32:00,
2013-09-28 15:37:00,73.9,60.0,30.13,ESE,114,0.0,5.0,61,0.00,,OVC OVC///CB,0.00,WUHU216DAVISVP2,2013-09-28 19:37:00,
2013-09-28 15:42:00,73.8,59.0,30.13,South,179,3.0,10.0,59,0.00,,OVC OVC///CB,0.00,WUHU216DAVISVP2,2013-09-28 19:42:00,
2013-09-28 15:47:00,74.1,59.2,30.13,SSE,162,0.0,10.0,59,0.00,,OVC OVC///CB,0.00,WUHU216DAVISVP2,2013-09-28 19:47:00,
2013-09-28 15:52:00,74.7,60.3,30.13,SSE,150,1.0,9.0,60,0.00,,OVC OVC///CB,0.00,WUHU216DAVISVP2,2013-09-28 19:52:00,
2013-09-28 15:57:00,74.9,59.0,30.13,East,94,4.0,9.0,57,0.00,,OVC OVC///CB,0.00,WUHU216DAVISVP2,2013-09-28 19:57:00,
2013-09-28 16:02:00,75.4,60.0,30.12,East,92,1.0,6.0,58,0.00,,OVC OVC///CB,0.00,WUHU216DAVISVP2,2013-09-28 20:02:00,
2013-09-28 16:07:00,76.0,59.0,30.13,WSW,238,3.0,5.0,55,0.00,,OVC OVC///CB,0.00,WUHU216DAVISVP2,2013-09-28 20:07:00,
2013-09-28 16:12:00,76.4,60.4,30.13,SSE,148,0.0,5.0,57,0.00,,OVC OVC///CB,0.00,WUHU216DAVISVP2,2013-09-28 20:12:00,
2013-09-28 16:17:00,76.6,59.1,30.12,SW,231,0.0,4.0,54,0.00,,OVC OVC///CB,0.00,WUHU216DAVISVP2,2013-09-28 20:17:00,
2013-09-28 16:22:00,75.9,60.0,30.12,SSW,203,3.0,4.0,57,0.00,,OVC OVC///CB,0.00,WUHU216DAVISVP2,2013-09-28 20:22:00,
2013-09-28 16:27:00,75.6,59.7,30.12,SSW,212,1.0,7.0,57,0.00,,OVC OVC///CB,0.00,WUHU216DAVISVP2,2013-09-28 20:27:00,
2013-09-28 16:32:00,75.9,59.5,30.12,South,169,1.0,7.0,56,0.00,,OVC OVC///CB,0.00,WUHU216DAVISVP2,2013-09-28 20:32:00,
2013-09-28 16:37:00,75.7,58.2,30.12,West,260,0.0,7.0,54,0.00,,OVC OVC///CB,0.00,WUHU216DAVISVP2,2013-09-28 20:37:00,
2013-09-28 16:42:00,76.0,60.1,30.12,SSW,210,1.0,7.0,57,0.00,,OVC OVC///CB,0.00,WUHU216DAVISVP2,2013-09-28 20:42:00,
2013-09-28 16:47:00,75.7,58.8,30.12,SSE,152,0.0,7.0,55,0.00,,OVC OVC///CB,0.00,WUHU216DAVISVP2,2013-09-28 20:47:00,
2013-09-28 16:52:00,75.9,60.0,30.11,ESE,113,1.0,7.0,57,0.00,,OVC OVC///CB,0.00,WUHU216DAVISVP2,2013-09-28 20:52:00,
2013-09-28 16:57:00,76.3,59.8,30.11,SSW,210,0.0,6.0,56,0.00,,OVC OVC///CB,0.00,WUHU216DAVISVP2,2013-09-28 20:57:00,
2013-09-28 17:02:00,75.9,60.0,30.11,SSE,164,0.0,5.0,57,0.00,,OVC OVC///CB,0.00,WUHU216DAVISVP2,2013-09-28 21:02:00,
2013-09-28 17:07:00,75.7,59.8,30.11,ESE,108,0.0,5.0,57,0.00,,OVC OVC///CB,0.00,WUHU216DAVISVP2,2013-09-28 21:07:00,
2013-09-28 17:12:00,75.5,59.1,30.11,ESE,122,2.0,6.0,56,0.00,,OVC OVC///CB,0.00,WUHU216DAVISVP2,2013-09-28 21:12:00,
2013-09-28 17:17:00,74.8,58.9,30.11,East,93,4.0,9.0,57,0.00,,OVC OVC///CB,0.00,WUHU216DAVISVP2,2013-09-28 21:17:00,
2013-09-28 17:22:00,74.5,59.1,30.11,ESE,120,4.0,9.0,58,0.00,,OVC OVC///CB,0.00,WUHU216DAVISVP2,2013-09-28 21:22:00,
2013-09-28 17:27:00,74.3,59.4,30.11,SSW,212,0.0,8.0,59,0.00,,OVC OVC///CB,0.00,WUHU216DAVISVP2,2013-09-28 21:27:00,
2013-09-28 17:32:00,74.8,60.4,30.11,South,181,0.0,8.0,60,0.00,,OVC OVC///CB,0.00,WUHU216DAVISVP2,2013-09-28 21:32:00,
2013-09-28 17:37:00,75.1,59.2,30.11,ESE,103,2.0,8.0,57,0.00,,OVC OVC///CB,0.00,WUHU216DAVISVP2,2013-09-28 21:37:00,
2013-09-28 17:42:00,74.6,59.2,30.11,SW,229,1.0,8.0,58,0.00,,OVC OVC///CB,0.00,WUHU216DAVISVP2,2013-09-28 21:42:00,
2013-09-28 17:47:00,74.6,59.7,30.11,SW,214,0.0,6.0,59,0.00,,OVC OVC///CB,0.00,WUHU216DAVISVP2,2013-09-28 21:47:00,
2013-09-28 17:52:00,74.5,59.1,30.11,SSW,211,4.0,10.0,58,0.00,,OVC OVC///CB,0.00,WUHU216DAVISVP2,2013-09-28 21:52:00,
2013-09-28 17:57:00,74.1,58.8,30.11,SW,226,1.0,10.0,58,0.00,,OVC OVC///CB,0.00,WUHU216DAVISVP2,2013-09-28 21:57:00,
2013-09-28 18:02:00,74.0,58.7,30.11,South,187,1.0,9.0,58,0.00,,OVC OVC///CB,0.00,WUHU216DAVISVP2,2013-09-28 22:02:00,
2013-09-28 18:07:00,74.0,58.7,30.11,ESE,122,0.0,9.0,58,0.00,,OVC OVC///CB,0.00,WUHU216DAVISVP2,2013-09-28 22:07:00,
2013-09-28 18:12:00,74.1,58.8,30.11,South,184,0.0,6.0,58,0.00,,OVC OVC///CB,0.00,WUHU216DAVISVP2,2013-09-28 22:12:00,
2013-09-28 18:17:00,74.2,59.3,30.11,SE,128,1.0,6.0,59,0.00,,OVC OVC///CB,0.00,WUHU216DAVISVP2,2013-09-28 22:17:00,
2013-09-28 18:22:00,74.0,59.1,30.11,SSE,148,0.0,4.0,59,0.00,,OVC OVC///CB,0.00,WUHU216DAVISVP2,2013-09-28 22:22:00,
2013-09-28 18:27:00,73.5,59.1,30.11,West,266,0.0,4.0,60,0.00,,OVC OVC///CB,0.00,WUHU216DAVISVP2,2013-09-28 22:27:00,
2013-09-28 18:32:00,73.1,58.8,30.11,SSW,208,0.0,4.0,60,0.00,,OVC OVC///CB,0.00,WUHU216DAVISVP2,2013-09-28 22:32:00,
2013-09-28 18:37:00,72.7,58.9,30.11,SSW,205,0.0,2.0,61,0.00,,OVC OVC///CB,0.00,WUHU216DAVISVP2,2013-09-28 22:37:00,
2013-09-28 18:42:00,72.2,58.8,30.11,SSW,208,0.0,2.0,62,0.00,,OVC OVC///CB,0.00,WUHU216DAVISVP2,2013-09-28 22:42:00,
2013-09-28 18:47:00,71.6,58.7,30.11,SSW,208,0.0,1.0,63,0.00,,OVC OVC///CB,0.00,WUHU216DAVISVP2,2013-09-28 22:47:00,
2013-09-28 18:52:00,71.2,58.8,30.11,SSW,208,0.0,1.0,64,0.00,,OVC OVC///CB,0.00,WUHU216DAVISVP2,2013-09-28 22:52:00,
2013-09-28 18:57:00,70.7,58.7,30.11,SSW,208,0.0,1.0,65,0.00,,OVC OVC///CB,0.00,WUHU216DAVISVP2,2013-09-28 22:57:00,
2013-09-28 19:02:00,70.2,58.7,30.10,SSW,208,0.0,1.0,66,0.00,,OVC OVC///CB,0.00,WUHU216DAVISVP2,2013-09-28 23:02:00,
2013-09-28 19:07:00,69.6,58.5,30.11,SSE,152,0.0,2.0,67,0.00,,OVC OVC///CB,0.00,WUHU216DAVISVP2,2013-09-28 23:07:00,
2013-09-28 19:12:00,69.1,58.4,30.11,SSE,151,0.0,2.0,68,0.00,,OVC OVC///CB,0.00,WUHU216DAVISVP2,2013-09-28 23:12:00,
2013-09-28 19:17:00,68.6,58.4,30.11,SSE,152,0.0,2.0,69,0.00,,OVC OVC///CB,0.00,WUHU216DAVISVP2,2013-09-28 23:17:00,
2013-09-28 19:22:00,68.0,58.2,30.10,SSE,152,0.0,2.0,70,0.00,,OVC OVC///CB,0.00,WUHU216DAVISVP2,2013-09-28 23:22:00,
2013-09-28 19:27:00,67.5,58.5,30.10,SSE,152,0.0,1.0,72,0.00,,OVC OVC///CB,0.00,WUHU216DAVISVP2,2013-09-28 23:27:00,
2013-09-28 19:32:00,67.1,58.1,30.10,SSE,150,0.0,1.0,72,0.00,,OVC OVC///CB,0.00,WUHU216DAVISVP2,2013-09-28 23:32:00,
2013-09-28 19:37:00,66.7,58.1,30.10,SSE,150,0.0,1.0,73,0.00,,OVC OVC///CB,0.00,WUHU216DAVISVP2,2013-09-28 23:37:00,
2013-09-28 19:42:00,66.3,58.0,30.10,SSE,150,0.0,1.0,74,0.00,,OVC OVC///CB,0.00,WUHU216DAVISVP2,2013-09-28 23:42:00,
2013-09-28 19:47:00,65.9,58.0,30.10,SSE,150,0.0,0.0,75,0.00,,OVC OVC///CB,0.00,WUHU216DAVISVP2,2013-09-28 23:47:00,
2013-09-28 19:52:00,65.6,57.7,30.10,SSE,150,0.0,0.0,75,0.00,,OVC OVC///CB,0.00,WUHU216DAVISVP2,2013-09-28 23:52:00,
2013-09-28 19:57:00,65.3,57.8,30.11,SSE,150,0.0,1.0,76,0.00,,OVC OVC///CB,0.00,WUHU216DAVISVP2,2013-09-28 23:57:00,
2013-09-28 20:02:00,65.1,58.0,30.11,SSE,150,0.0,1.0,77,0.00,,OVC OVC///CB,0.00,WUHU216DAVISVP2,2013-09-29 00:02:00,
2013-09-28 20:07:00,65.1,58.3,30.11,SSE,150,0.0,1.0,78,0.00,,OVC OVC///CB,0.00,WUHU216DAVISVP2,2013-09-29 00:07:00,
2013-09-28 20:12:00,65.0,58.2,30.10,SSE,150,0.0,1.0,78,0.00,,OVC OVC///CB,0.00,WUHU216DAVISVP2,2013-09-29 00:12:00,
2013-09-28 20:17:00,64.8,58.0,30.10,SSE,150,0.0,1.0,78,0.00,,OVC OVC///CB,0.00,WUHU216DAVISVP2,2013-09-29 00:17:00,
2013-09-28 20:22:00,64.5,57.7,30.10,SSE,150,0.0,1.0,78,0.00,,OVC OVC///CB,0.00,WUHU216DAVISVP2,2013-09-29 00:22:00,
2013-09-28 20:27:00,64.2,57.8,30.11,SSE,150,0.0,1.0,79,0.00,,OVC OVC///CB,0.00,WUHU216DAVISVP2,2013-09-29 00:27:00,
2013-09-28 20:32:00,64.1,57.7,30.11,SSE,150,0.0,1.0,79,0.00,,OVC OVC///CB,0.00,WUHU216DAVISVP2,2013-09-29 00:32:00,
2013-09-28 20:37:00,63.6,57.2,30.11,SSE,150,0.0,0.0,79,0.00,,OVC OVC///CB,0.00,WUHU216DAVISVP2,2013-09-29 00:37:00,
2013-09-28 20:42:00,63.2,57.1,30.11,SSE,151,0.0,0.0,80,0.00,,OVC OVC///CB,0.00,WUHU216DAVISVP2,2013-09-29 00:42:00,
2013-09-28 20:47:00,62.7,57.0,30.11,SSE,150,0.0,0.0,81,0.00,,OVC OVC///CB,0.00,WUHU216DAVISVP2,2013-09-29 00:47:00,
2013-09-28 20:52:00,62.5,57.1,30.11,SSE,150,0.0,0.0,82,0.00,,OVC OVC///CB,0.00,WUHU216DAVISVP2,2013-09-29 00:52:00,
2013-09-28 20:57:00,62.5,57.4,30.11,SSE,151,0.0,0.0,83,0.00,,OVC OVC///CB,0.00,WUHU216DAVISVP2,2013-09-29 00:57:00,
2013-09-28 21:02:00,62.6,57.5,30.11,SSE,150,0.0,0.0,83,0.00,,OVC OVC///CB,0.00,WUHU216DAVISVP2,2013-09-29 01:02:00,
2013-09-28 21:07:00,62.6,57.5,30.11,SSE,150,0.0,0.0,83,0.00,,OVC OVC///CB,0.00,WUHU216DAVISVP2,2013-09-29 01:07:00,
2013-09-28 21:12:00,62.7,57.6,30.11,SSE,150,0.0,0.0,83,0.00,,OVC OVC///CB,0.00,WUHU216DAVISVP2,2013-09-29 01:12:00,
2013-09-28 21:17:00,62.7,57.6,30.11,SSE,150,0.0,0.0,83,0.00,,OVC OVC///CB,0.00,WUHU216DAVISVP2,2013-09-29 01:17:00,
2013-09-28 21:22:00,62.7,57.6,30.11,SSE,150,0.0,1.0,83,0.00,,OVC OVC///CB,0.00,WUHU216DAVISVP2,2013-09-29 01:22:00,
2013-09-28 21:27:00,62.6,57.5,30.10,SSE,150,0.0,1.0,83,0.00,,OVC OVC///CB,0.00,WUHU216DAVISVP2,2013-09-29 01:27:00,
2013-09-28 21:32:00,62.6,57.5,30.10,SSE,150,0.0,1.0,83,0.00,,OVC OVC///CB,0.00,WUHU216DAVISVP2,2013-09-29 01:32:00,
2013-09-28 21:37:00,62.5,57.4,30.10,SSE,150,0.0,1.0,83,0.00,,OVC OVC///CB,0.00,WUHU216DAVISVP2,2013-09-29 01:37:00,
2013-09-28 21:42:00,62.4,57.3,30.10,SSE,150,0.0,0.0,83,0.00,,OVC OVC///CB,0.00,WUHU216DAVISVP2,2013-09-29 01:42:00,
2013-09-28 21:47:00,62.4,57.3,30.10,SSE,150,0.0,1.0,83,0.00,,OVC OVC///CB,0.00,WUHU216DAVISVP2,2013-09-29 01:47:00,
2013-09-28 21:52:00,62.4,57.3,30.11,SSE,152,0.0,1.0,83,0.00,,OVC OVC///CB,0.00,WUHU216DAVISVP2,2013-09-29 01:52:00,
2013-09-28 21:57:00,62.4,57.3,30.10,SSE,152,0.0,1.0,83,0.00,,OVC OVC///CB,0.00,WUHU216DAVISVP2,2013-09-29 01:57:00,
2013-09-28 22:02:00,62.4,57.3,30.10,ESE,117,0.0,1.0,83,0.00,,OVC OVC///CB,0.00,WUHU216DAVISVP2,2013-09-29 02:02:00,
2013-09-28 22:07:00,62.4,57.3,30.10,South,169,0.0,1.0,83,0.00,,OVC OVC///CB,0.00,WUHU216DAVISVP2,2013-09-29 02:07:00,
2013-09-28 22:12:00,62.3,57.2,30.10,SSE,166,0.0,3.0,83,0.00,,OVC OVC///CB,0.00,WUHU216DAVISVP2,2013-09-29 02:12:00,
2013-09-28 22:17:00,62.3,56.9,30.11,SE,142,0.0,3.0,82,0.00,,OVC OVC///CB,0.00,WUHU216DAVISVP2,2013-09-29 02:17:00,
2013-09-28 22:22:00,62.2,57.1,30.10,South,181,0.0,3.0,83,0.00,,OVC OVC///CB,0.00,WUHU216DAVISVP2,2013-09-29 02:22:00,
2013-09-28 22:27:00,62.1,57.0,30.11,ENE,71,0.0,3.0,83,0.00,,OVC OVC///CB,0.00,WUHU216DAVISVP2,2013-09-29 02:27:00,
2013-09-28 22:32:00,62.1,57.0,30.11,SSE,152,0.0,3.0,83,0.00,,OVC OVC///CB,0.00,WUHU216DAVISVP2,2013-09-29 02:32:00,
2013-09-28 22:37:00,62.1,57.0,30.11,SSW,197,0.0,3.0,83,0.00,,OVC OVC///CB,0.00,WUHU216DAVISVP2,2013-09-29 02:37:00,
2013-09-28 22:42:00,62.0,56.9,30.11,SE,145,0.0,3.0,83,0.00,,OVC OVC///CB,0.00,WUHU216DAVISVP2,2013-09-29 02:42:00,
2013-09-28 22:47:00,62.0,56.9,30.11,South,181,0.0,3.0,83,0.00,,OVC OVC///CB,0.00,WUHU216DAVISVP2,2013-09-29 02:47:00,
2013-09-28 22:52:00,61.9,56.8,30.11,SSW,203,0.0,2.0,83,0.00,,OVC OVC///CB,0.00,WUHU216DAVISVP2,2013-09-29 02:52:00,
2013-09-28 22:57:00,61.8,56.4,30.11,SE,128,1.0,4.0,82,0.00,,OVC OVC///CB,0.00,WUHU216DAVISVP2,2013-09-29 02:57:00,
2013-09-28 23:02:00,61.7,56.6,30.10,South,169,0.0,4.0,83,0.00,,OVC OVC///CB,0.00,WUHU216DAVISVP2,2013-09-29 03:02:00,
2013-09-28 23:07:00,61.4,56.3,30.10,South,171,0.0,4.0,83,0.00,,OVC OVC///CB,0.00,WUHU216DAVISVP2,2013-09-29 03:07:00,
2013-09-28 23:12:00,61.2,56.2,30.10,SSE,158,0.0,4.0,83,0.00,,OVC OVC///CB,0.00,WUHU216DAVISVP2,2013-09-29 03:12:00,
2013-09-28 23:17:00,60.9,56.2,30.10,SSE,158,0.0,2.0,84,0.00,,OVC OVC///CB,0.00,WUHU216DAVISVP2,2013-09-29 03:17:00,
2013-09-28 23:22:00,60.5,56.1,30.10,ENE,75,1.0,1.0,85,0.00,,OVC OVC///CB,0.00,WUHU216DAVISVP2,2013-09-29 03:22:00,
2013-09-28 23:27:00,60.4,56.0,30.10,SE,134,3.0,5.0,85,0.00,,OVC OVC///CB,0.00,WUHU216DAVISVP2,2013-09-29 03:27:00,
2013-09-28 23:32:00,60.5,56.1,30.10,SE,131,0.0,6.0,85,0.00,,OVC OVC///CB,0.00,WUHU216DAVISVP2,2013-09-29 03:32:00,
2013-09-28 23:37:00,60.4,55.7,30.10,ESE,111,0.0,6.0,84,0.00,,OVC OVC///CB,0.00,WUHU216DAVISVP2,2013-09-29 03:37:00,
2013-09-28 23:42:00,60.3,55.6,30.10,SSE,158,0.0,6.0,84,0.00,,OVC OVC///CB,0.00,WUHU216DAVISVP2,2013-09-29 03:42:00,
2013-09-28 23:47:00,60.1,55.7,30.10,ESE,109,0.0,5.0,85,0.00,,OVC OVC///CB,0.00,WUHU216DAVISVP2,2013-09-29 03:47:00,
2013-09-28 23:52:00,60.0,55.6,30.10,SW,221,0.0,6.0,85,0.00,,OVC OVC///CB,0.00,WUHU216DAVISVP2,2013-09-29 03:52:00,
2013-09-28 23:57:00,59.7,55.3,30.10,SSE,163,0.0,6.0,85,0.00,,OVC OVC///CB,0.00,WUHU216DAVISVP2,2013-09-29 03:57:00,